Opal Express — V7KB8 — position and weather

sailwx.info

Track history (hours):
 
Tides and Currents Weather Stations Pressure Air Temp Water Temp Dewpoint Dewpoint Depression Visibility Wind Speed Wind Dir Waves Ship Positions

Opal Express

Last reported at 2015-Aug-02 15:26 UTC. Time now 2015-Aug-02 16:29 UTC.
Position N 42°25' W 070°48'.

Length 179 m; draft 7.8 m.

Type: Tanker. MMSI: 538002500.

Date/timePositionNaut miles runAvg speedWind from/ knotsBaromVisibWave heightAir tempDewpointWater temp
2015-Aug-02 15:26N 42°25' W 070°48'0 0.0
2015-Aug-02 14:32N 42°25' W 070°48'0 0.0
2015-Aug-02 13:32N 42°25' W 070°48'0 0.1
2015-Aug-02 12:32N 42°25' W 070°48'0 0.1
2015-Aug-02 11:23N 42°25' W 070°47'0 0.0
2015-Aug-02 10:32N 42°25' W 070°47'0 0.0
2015-Aug-02 08:32N 42°25' W 070°47'0 0.0
2015-Aug-02 07:20N 42°25' W 070°47'13 7.3
2015-Aug-02 05:33N 42°22' W 070°30'1312.3
2015-Aug-02 04:27N 42°20' W 070°12'1411.1
2015-Aug-02 03:10N 42°13' W 069°56'2012.4
2015-Aug-02 01:32N 41°55' W 069°43'1212.4
2015-Aug-02 00:32N 41°44' W 069°36'1212.7
2015-Aug-01 23:33N 41°33' W 069°28'1312.8
2015-Aug-01 22:34N 41°22' W 069°20'1212.0
2015-Aug-01 21:33N 41°11' W 069°13'1110.6
2015-Aug-01 20:33N 41°02' W 069°07'1111.1
2015-Aug-01 19:33N 40°52' W 069°00'1111.4
2015-Aug-01 18:33N 40°42' W 068°53'1212.5
2015-Aug-01 17:33N 40°29' W 068°58'1212.3
2015-Aug-01 16:33N 40°27' W 069°13'1313.0
2015-Aug-01 15:33N 40°27' W 069°30'1312.7
2015-Aug-01 14:33N 40°26' W 069°47'1312.8
2015-Aug-01 13:33N 40°26' W 070°04'1212.4
2015-Aug-01 12:33N 40°25' W 070°20'1212.0
2015-Aug-01 11:33N 40°25' W 070°36'1211.8
2015-Aug-01 10:33N 40°25' W 070°51'1212.3
2015-Aug-01 09:33N 40°24' W 071°08'1212.2
2015-Aug-01 08:33N 40°24' W 071°24'1111.3
2015-Aug-01 07:33N 40°35' W 071°25'1312.8
2015-Aug-01 06:34N 40°48' W 071°25'1312.8
2015-Aug-01 05:34N 41°01' W 071°26'1313.0
2015-Aug-01 04:33N 41°14' W 071°26'9 8.5
2015-Aug-01 03:34N 41°22' W 071°21'1 1.0
2015-Aug-01 02:32N 41°22' W 071°20'0 0.0
2015-Aug-01 01:32N 41°22' W 071°20'0 0.0
2015-Aug-01 00:32N 41°22' W 071°20'0 0.0
2015-Jul-31 23:32N 41°22' W 071°20'0 0.0
2015-Jul-31 22:32N 41°22' W 071°20'0 0.0
2015-Jul-31 21:32N 41°22' W 071°20'0 0.0
2015-Jul-31 13:32N 41°22' W 071°20'0 0.0
2015-Jul-31 12:32N 41°22' W 071°20'0 0.0
2015-Jul-31 11:33N 41°22' W 071°20'0 0.0
2015-Jul-31 10:33N 41°22' W 071°20'0 0.0
2015-Jul-31 09:33N 41°22' W 071°20'0 0.0
2015-Jul-31 08:32N 41°22' W 071°20'0 0.0
2015-Jul-31 07:32N 41°22' W 071°20'0 0.1
2015-Jul-31 06:32N 41°22' W 071°20'0 0.1
2015-Jul-31 05:32N 41°22' W 071°20'0 0.0
2015-Jul-31 04:32N 41°22' W 071°20'0 0.0
2015-Jul-31 03:32N 41°22' W 071°20'0 0.0
2015-Jul-31 02:32N 41°22' W 071°20'0 0.1
2015-Jul-31 01:23N 41°22' W 071°20'0 0.0
2015-Jul-31 00:32N 41°22' W 071°20'0 0.1
2015-Jul-30 23:32N 41°22' W 071°20'0 0.0
2015-Jul-30 22:32N 41°22' W 071°20'0 0.0
2015-Jul-30 21:32N 41°22' W 071°20'0 0.0
2015-Jul-30 20:17N 41°22' W 071°20'0 0.0
2015-Jul-30 19:32N 41°22' W 071°20'0 0.1
2015-Jul-30 18:29N 41°22' W 071°20'0 0.0
2015-Jul-30 17:32N 41°22' W 071°20'0 0.1
2015-Jul-30 16:34N 41°22' W 071°20'1 1.0
2015-Jul-30 15:33N 41°21' W 071°19'1 1.3
2015-Jul-30 14:34N 41°23' W 071°19'1 1.0
2015-Jul-30 13:33N 41°22' W 071°20'7 7.2
2015-Jul-30 12:33N 41°14' W 071°21'1211.6
2015-Jul-30 11:33N 41°03' W 071°20'1414.0
2015-Jul-30 10:34N 40°49' W 071°18'1414.4
2015-Jul-30 09:34N 40°35' W 071°16'1212.2
2015-Jul-30 08:34N 40°32' W 071°01'1414.3
2015-Jul-30 07:34N 40°33' W 070°42'1414.1
2015-Jul-30 06:34N 40°33' W 070°23'1414.0
2015-Jul-30 05:34N 40°34' W 070°05'1413.9
2015-Jul-30 04:33N 40°34' W 069°47'1413.5
2015-Jul-30 03:33N 40°35' W 069°29'1313.0
2015-Jul-30 02:33N 40°35' W 069°12'1413.5
2015-Jul-30 01:34N 40°35' W 068°54'7 6.8
2015-Jul-30 00:33N 40°35' W 068°45'1111.1
2015-Jul-29 23:33N 40°34' W 068°30'1414.2
2015-Jul-29 22:33N 40°34' W 068°12'1414.0
2015-Jul-29 21:33N 40°34' W 067°53'1413.6
2015-Jul-29 20:34N 40°34' W 067°35'1413.8
2015-Jul-29 19:33N 40°33' W 067°17'1614.3
2015-Jul-29 18:28N 40°33' W 066°57'  
Track history (hours):
 
Tides and Currents Weather Stations Pressure Air Temp Water Temp Dewpoint Dewpoint Depression Visibility Wind Speed Wind Dir Waves Ship Positions

Opal Express

Last reported at 2015-Aug-02 15:26 UTC. Time now 2015-Aug-02 16:29 UTC.
Position N 42°25' W 070°48'.

Length 179 m; draft 7.8 m.

Type: Tanker. MMSI: 538002500.

Date/timePositionNaut miles runAvg speedWind from/ knotsBaromVisibWave heightAir tempDewpointWater temp
2015-Aug-02 15:26N 42°25' W 070°48'0 0.0
2015-Aug-02 14:32N 42°25' W 070°48'0 0.0
2015-Aug-02 13:32N 42°25' W 070°48'0 0.1
2015-Aug-02 12:32N 42°25' W 070°48'0 0.1
2015-Aug-02 11:23N 42°25' W 070°47'0 0.0
2015-Aug-02 10:32N 42°25' W 070°47'0 0.0
2015-Aug-02 08:32N 42°25' W 070°47'0 0.0
2015-Aug-02 07:20N 42°25' W 070°47'13 7.3
2015-Aug-02 05:33N 42°22' W 070°30'1312.3
2015-Aug-02 04:27N 42°20' W 070°12'1411.1
2015-Aug-02 03:10N 42°13' W 069°56'2012.4
2015-Aug-02 01:32N 41°55' W 069°43'1212.4
2015-Aug-02 00:32N 41°44' W 069°36'1212.7
2015-Aug-01 23:33N 41°33' W 069°28'1312.8
2015-Aug-01 22:34N 41°22' W 069°20'1212.0
2015-Aug-01 21:33N 41°11' W 069°13'1110.6
2015-Aug-01 20:33N 41°02' W 069°07'1111.1
2015-Aug-01 19:33N 40°52' W 069°00'1111.4
2015-Aug-01 18:33N 40°42' W 068°53'1212.5
2015-Aug-01 17:33N 40°29' W 068°58'1212.3
2015-Aug-01 16:33N 40°27' W 069°13'1313.0
2015-Aug-01 15:33N 40°27' W 069°30'1312.7
2015-Aug-01 14:33N 40°26' W 069°47'1312.8
2015-Aug-01 13:33N 40°26' W 070°04'1212.4
2015-Aug-01 12:33N 40°25' W 070°20'1212.0
2015-Aug-01 11:33N 40°25' W 070°36'1211.8
2015-Aug-01 10:33N 40°25' W 070°51'1212.3
2015-Aug-01 09:33N 40°24' W 071°08'1212.2
2015-Aug-01 08:33N 40°24' W 071°24'1111.3
2015-Aug-01 07:33N 40°35' W 071°25'1312.8
2015-Aug-01 06:34N 40°48' W 071°25'1312.8
2015-Aug-01 05:34N 41°01' W 071°26'1313.0
2015-Aug-01 04:33N 41°14' W 071°26'9 8.5
2015-Aug-01 03:34N 41°22' W 071°21'1 1.0
2015-Aug-01 02:32N 41°22' W 071°20'0 0.0
2015-Aug-01 01:32N 41°22' W 071°20'0 0.0
2015-Aug-01 00:32N 41°22' W 071°20'0 0.0
2015-Jul-31 23:32N 41°22' W 071°20'0 0.0
2015-Jul-31 22:32N 41°22' W 071°20'0 0.0
2015-Jul-31 21:32N 41°22' W 071°20'0 0.0
2015-Jul-31 13:32N 41°22' W 071°20'0 0.0
2015-Jul-31 12:32N 41°22' W 071°20'0 0.0
2015-Jul-31 11:33N 41°22' W 071°20'0 0.0
2015-Jul-31 10:33N 41°22' W 071°20'0 0.0
2015-Jul-31 09:33N 41°22' W 071°20'0 0.0
2015-Jul-31 08:32N 41°22' W 071°20'0 0.0
2015-Jul-31 07:32N 41°22' W 071°20'0 0.1
2015-Jul-31 06:32N 41°22' W 071°20'0 0.1
2015-Jul-31 05:32N 41°22' W 071°20'0 0.0
2015-Jul-31 04:32N 41°22' W 071°20'0 0.0
2015-Jul-31 03:32N 41°22' W 071°20'0 0.0
2015-Jul-31 02:32N 41°22' W 071°20'0 0.1
2015-Jul-31 01:23N 41°22' W 071°20'0 0.0
2015-Jul-31 00:32N 41°22' W 071°20'0 0.1
2015-Jul-30 23:32N 41°22' W 071°20'0 0.0
2015-Jul-30 22:32N 41°22' W 071°20'0 0.0
2015-Jul-30 21:32N 41°22' W 071°20'0 0.0
2015-Jul-30 20:17N 41°22' W 071°20'0 0.0
2015-Jul-30 19:32N 41°22' W 071°20'0 0.1
2015-Jul-30 18:29N 41°22' W 071°20'0 0.0
2015-Jul-30 17:32N 41°22' W 071°20'0 0.1
2015-Jul-30 16:34N 41°22' W 071°20'1 1.0
2015-Jul-30 15:33N 41°21' W 071°19'1 1.3
2015-Jul-30 14:34N 41°23' W 071°19'1 1.0
2015-Jul-30 13:33N 41°22' W 071°20'7 7.2
2015-Jul-30 12:33N 41°14' W 071°21'1211.6
2015-Jul-30 11:33N 41°03' W 071°20'1414.0
2015-Jul-30 10:34N 40°49' W 071°18'1414.4
2015-Jul-30 09:34N 40°35' W 071°16'1212.2
2015-Jul-30 08:34N 40°32' W 071°01'1414.3
2015-Jul-30 07:34N 40°33' W 070°42'1414.1
2015-Jul-30 06:34N 40°33' W 070°23'1414.0
2015-Jul-30 05:34N 40°34' W 070°05'1413.9
2015-Jul-30 04:33N 40°34' W 069°47'1413.5
2015-Jul-30 03:33N 40°35' W 069°29'1313.0
2015-Jul-30 02:33N 40°35' W 069°12'1413.5
2015-Jul-30 01:34N 40°35' W 068°54'7 6.8
2015-Jul-30 00:33N 40°35' W 068°45'1111.1
2015-Jul-29 23:33N 40°34' W 068°30'1414.2
2015-Jul-29 22:33N 40°34' W 068°12'1414.0
2015-Jul-29 21:33N 40°34' W 067°53'1413.6
2015-Jul-29 20:34N 40°34' W 067°35'1413.8
2015-Jul-29 19:33N 40°33' W 067°17'1614.3
2015-Jul-29 18:28N 40°33' W 066°57'  

Dump ship's entire track history